Time;durP1;ratioP1;P1;durP2;ratioP2;P2;SDS_P1;SDS_P2;PMS_P1;PMS_P2;Temp;Humidity;BMP_temperature;BMP_pressure;BME280_temperature;BME280_humidity;BME280_pressure;Samples;Min_cycle;Max_cycle;Signal;HPM_P1;HPM_P2
2022/04/28 07:32:40;;;;;;;3.33;3.00;;;;;;;;;;6162969;23;20024;-85
2022/04/28 07:35:05;;;;;;;4.13;3.30;;;;;;;;;;6216608;23;20023;-85
2022/04/28 07:37:31;;;;;;;4.20;3.55;;;;;;;;;;6218221;23;20322;-82
2022/04/28 08:08:13;;;;;;;3.87;2.80;;;;;;;;;;6160028;23;20019;-87
2022/04/28 08:10:38;;;;;;;3.47;2.88;;;;;;;;;;6187251;23;20332;-86
2022/04/28 08:13:04;;;;;;;3.10;2.80;;;;;;;;;;6188648;23;20063;-82
2022/04/28 08:15:30;;;;;;;5.72;2.97;;;;;;;;;;6187240;23;20013;-83
2022/04/28 08:17:56;;;;;;;3.35;3.00;;;;;;;;;;6188760;23;20009;-86
2022/04/28 08:20:21;;;;;;;4.00;2.97;;;;;;;;;;6186608;23;20012;-84
2022/04/28 08:22:46;;;;;;;4.47;3.05;;;;;;;;;;6186873;23;20001;-91
2022/04/28 08:25:12;;;;;;;3.83;3.03;;;;;;;;;;6189069;23;20005;-88
2022/04/28 08:27:38;;;;;;;4.15;3.50;;;;;;;;;;6187988;23;20005;-89
2022/04/28 08:30:04;;;;;;;3.40;3.10;;;;;;;;;;6187944;23;20059;-91
2022/04/28 08:32:30;;;;;;;4.43;3.38;;;;;;;;;;6188131;23;20332;-89
2022/04/28 08:34:55;;;;;;;4.40;3.08;;;;;;;;;;6188824;23;20005;-90
2022/04/28 08:37:20;;;;;;;3.78;3.42;;;;;;;;;;6187280;23;20005;-86
2022/04/28 08:39:46;;;;;;;3.50;3.20;;;;;;;;;;6188254;23;20001;-89
2022/04/28 08:42:13;;;;;;;3.55;3.22;;;;;;;;;;6188025;23;20001;-87
2022/04/28 08:44:39;;;;;;;4.75;3.70;;;;;;;;;;6186231;23;20005;-86
2022/04/28 08:47:06;;;;;;;4.03;3.58;;;;;;;;;;6187436;23;20005;-84
2022/04/28 08:49:32;;;;;;;5.22;3.20;;;;;;;;;;6187477;23;20008;-86
2022/04/28 08:51:59;;;;;;;5.43;4.00;;;;;;;;;;6187403;23;20076;-87
2022/04/28 08:54:27;;;;;;;3.88;3.05;;;;;;;;;;6187756;23;20008;-86
2022/04/28 08:56:54;;;;;;;3.42;3.13;;;;;;;;;;6188093;23;20067;-90
2022/04/28 08:59:21;;;;;;;3.75;3.45;;;;;;;;;;6187993;23;20059;-85
2022/04/28 09:01:47;;;;;;;3.55;3.25;;;;;;;;;;6185749;23;20016;-84
2022/04/28 09:04:13;;;;;;;4.32;3.85;;;;;;;;;;6185494;23;20332;-84
2022/04/28 09:06:41;;;;;;;5.05;3.83;;;;;;;;;;6185388;23;20009;-85
2022/04/28 09:09:07;;;;;;;4.00;3.70;;;;;;;;;;6186875;23;20046;-85
2022/04/28 09:11:35;;;;;;;4.65;3.80;;;;;;;;;;6186758;23;20479;-84
2022/04/28 09:14:14;;;;;;;4.80;4.32;;;;;;;;;;6186984;23;19997;-83
2022/04/28 09:16:41;;;;;;;4.07;3.42;;;;;;;;;;6185625;23;20009;-84
2022/04/28 09:19:07;;;;;;;7.35;4.20;;;;;;;;;;6186705;23;20009;-81
2022/04/28 09:21:34;;;;;;;4.75;4.10;;;;;;;;;;6186906;23;20001;-81
2022/04/28 09:24:00;;;;;;;4.47;4.07;;;;;;;;;;6186600;23;20009;-81
2022/04/28 09:26:26;;;;;;;4.80;4.28;;;;;;;;;;6187141;23;20008;-80
2022/04/28 09:28:57;;;;;;;5.50;4.10;;;;;;;;;;6188190;23;20031;-78
2022/04/28 09:31:23;;;;;;;4.75;4.20;;;;;;;;;;6186749;23;20076;-80
2022/04/28 09:33:49;;;;;;;5.18;4.28;;;;;;;;;;6186685;23;20479;-80
2022/04/28 09:36:14;;;;;;;5.18;4.68;;;;;;;;;;6186679;23;20083;-80
2022/04/28 09:38:40;;;;;;;6.35;4.53;;;;;;;;;;6186870;23;20412;-79
2022/04/28 09:44:11;;;;;;;4.97;4.45;;;;;;;;;;6153477;23;20029;-80
2022/04/28 09:46:44;;;;;;;5.13;4.47;;;;;;;;;;6186362;23;20012;-80
2022/04/28 09:49:11;;;;;;;4.40;3.85;;;;;;;;;;6186718;23;20005;-80
2022/04/28 09:51:40;;;;;;;5.90;4.75;;;;;;;;;;6187102;23;20033;-79
2022/04/28 09:54:08;;;;;;;4.82;4.43;;;;;;;;;;6186871;23;20417;-80
2022/04/28 09:56:36;;;;;;;6.13;4.60;;;;;;;;;;6187098;23;20032;-80
2022/04/28 09:59:05;;;;;;;5.03;4.38;;;;;;;;;;6186281;23;20021;-82
2022/04/28 10:01:34;;;;;;;5.90;5.22;;;;;;;;;;6187082;23;20047;-81
2022/04/28 10:04:00;;;;;;;5.22;4.25;;;;;;;;;;6186843;23;20001;-86
2022/04/28 10:06:28;;;;;;;6.65;5.28;;;;;;;;;;6186931;23;20451;-84
2022/04/28 10:08:54;;;;;;;6.50;4.80;;;;;;;;;;6186925;23;20013;-80
2022/04/28 10:11:24;;;;;;;6.68;4.85;;;;;;;;;;6190860;23;20428;-82
2022/04/28 10:13:51;;;;;;;5.97;5.25;;;;;;;;;;6194976;23;20096;-81
2022/04/28 10:16:19;;;;;;;6.20;5.05;;;;;;;;;;6198877;23;20008;-83
2022/04/28 10:19:01;;;;;;;3.97;3.67;;;;;;;;;;6197567;23;20001;-82
2022/04/28 10:21:36;;;;;;;6.25;5.68;;;;;;;;;;6197288;23;20027;-81
2022/04/28 10:32:57;;;;;;;2.72;2.53;;;;;;;;;;6194804;23;20137;-82
2022/04/28 10:35:48;;;;;;;2.77;2.17;;;;;;;;;;6187718;23;20054;-84
2022/04/28 10:38:14;;;;;;;2.08;1.88;;;;;;;;;;6187842;23;19997;-82
2022/04/28 10:40:53;;;;;;;4.28;2.45;;;;;;;;;;6185798;23;20005;-83
2022/04/28 10:43:40;;;;;;;2.75;2.55;;;;;;;;;;6187864;23;20016;-82
2022/04/28 10:46:06;;;;;;;2.00;1.90;;;;;;;;;;6187613;23;20009;-81
2022/04/28 10:48:38;;;;;;;1.90;1.80;;;;;;;;;;6186075;23;20450;-80
2022/04/28 10:51:18;;;;;;;2.97;2.22;;;;;;;;;;6187466;23;20356;-81
2022/04/28 10:53:58;;;;;;;2.30;2.10;;;;;;;;;;6187826;23;20379;-82
2022/04/28 10:56:25;;;;;;;2.33;2.13;;;;;;;;;;6187262;23;20001;-80
2022/04/28 10:58:52;;;;;;;4.72;2.72;;;;;;;;;;6185497;23;20333;-81
2022/04/28 11:01:31;;;;;;;3.17;2.08;;;;;;;;;;6187001;23;20001;-82
2022/04/28 11:03:58;;;;;;;2.88;2.67;;;;;;;;;;6186921;23;20001;-80
2022/04/28 11:06:37;;;;;;;2.50;2.30;;;;;;;;;;6186706;23;20009;-81
2022/04/28 11:09:05;;;;;;;3.60;2.20;;;;;;;;;;6186657;23;20410;-80
2022/04/28 11:11:45;;;;;;;2.58;2.22;;;;;;;;;;6188699;23;20064;-81
2022/04/28 11:14:11;;;;;;;3.13;2.33;;;;;;;;;;6188421;23;20013;-81
2022/04/28 11:16:39;;;;;;;2.75;2.55;;;;;;;;;;6188649;23;20361;-81
2022/04/28 11:19:07;;;;;;;2.63;2.42;;;;;;;;;;6189234;23;20012;-81
2022/04/28 11:21:33;;;;;;;3.10;2.45;;;;;;;;;;6188698;23;20372;-80
2022/04/28 11:23:59;;;;;;;4.75;2.72;;;;;;;;;;6188568;23;20009;-80
2022/04/28 11:26:27;;;;;;;3.22;2.25;;;;;;;;;;6188446;23;20019;-80
2022/04/28 11:28:52;;;;;;;2.88;2.67;;;;;;;;;;6188282;23;20001;-79
2022/04/28 11:31:19;;;;;;;3.22;2.67;;;;;;;;;;6188391;23;20012;-83
2022/04/28 11:33:47;;;;;;;2.88;2.33;;;;;;;;;;6188334;23;20008;-80
2022/04/28 11:36:25;;;;;;;5.18;2.40;;;;;;;;;;6187991;23;20371;-79
2022/04/28 11:39:01;;;;;;;2.80;2.60;;;;;;;;;;6187669;23;20079;-79
2022/04/28 11:41:39;;;;;;;2.90;2.70;;;;;;;;;;6187816;23;20028;-81
2022/04/28 11:44:06;;;;;;;2.55;2.35;;;;;;;;;;6187413;23;20059;-80
2022/04/28 11:46:53;;;;;;;2.50;2.10;;;;;;;;;;6187701;23;20012;-79
2022/04/28 11:49:19;;;;;;;3.25;2.88;;;;;;;;;;6187825;23;20012;-79
2022/04/28 11:51:45;;;;;;;2.83;2.38;;;;;;;;;;6187914;23;20005;-79
2022/04/28 11:54:23;;;;;;;2.55;2.35;;;;;;;;;;6187646;23;20067;-79
2022/04/28 11:56:49;;;;;;;2.53;2.28;;;;;;;;;;6188167;23;20017;-80
2022/04/28 11:59:15;;;;;;;5.25;2.55;;;;;;;;;;6187931;23;20001;-80
2022/04/28 12:01:44;;;;;;;5.38;2.30;;;;;;;;;;6187896;23;20017;-79
2022/04/28 12:04:11;;;;;;;2.90;2.38;;;;;;;;;;6186435;23;20044;-77
2022/04/28 12:06:37;;;;;;;2.60;2.40;;;;;;;;;;6187355;23;20005;-78
2022/04/28 12:14:35;;;;;;;3.30;2.80;;;;;;;;;;6187508;23;20063;-79
2022/04/28 12:20:11;;;;;;;3.40;3.10;;;;;;;;;;6187612;23;20016;-79
2022/04/28 12:22:39;;;;;;;3.50;3.05;;;;;;;;;;6187215;23;20251;-79
2022/04/28 12:25:04;;;;;;;3.40;2.80;;;;;;;;;;6187228;23;20056;-79
2022/04/28 12:27:47;;;;;;;4.40;3.03;;;;;;;;;;6187300;23;20000;-79
2022/04/28 12:30:16;;;;;;;4.93;2.78;;;;;;;;;;6187531;23;20005;-78
2022/04/28 12:32:47;;;;;;;4.00;3.28;;;;;;;;;;6187376;23;20040;-79
2022/04/28 12:35:35;;;;;;;3.10;2.88;;;;;;;;;;6187116;23;20306;-79
2022/04/28 12:38:06;;;;;;;3.67;3.38;;;;;;;;;;6187157;23;20007;-79
2022/04/28 12:40:39;;;;;;;3.60;3.08;;;;;;;;;;6187520;23;20452;-79
2022/04/28 12:43:05;;;;;;;4.53;3.17;;;;;;;;;;6187448;23;20058;-79
2022/04/28 12:45:40;;;;;;;3.88;2.80;;;;;;;;;;6187059;23;20064;-79
2022/04/28 12:48:21;;;;;;;4.72;3.30;;;;;;;;;;6187078;23;20028;-79
2022/04/28 12:50:48;;;;;;;4.05;3.38;;;;;;;;;;6187114;23;20071;-79
2022/04/28 12:53:34;;;;;;;4.07;3.10;;;;;;;;;;6187094;23;20008;-79
2022/04/28 12:56:10;;;;;;;4.28;3.67;;;;;;;;;;6186613;23;20443;-79
2022/04/28 12:58:50;;;;;;;3.72;3.35;;;;;;;;;;6187397;23;20297;-79
2022/04/28 13:01:19;;;;;;;5.03;3.53;;;;;;;;;;6187093;23;20368;-79
2022/04/28 13:04:08;;;;;;;4.15;3.20;;;;;;;;;;6186937;23;20001;-79
2022/04/28 13:06:37;;;;;;;3.35;3.05;;;;;;;;;;6186886;23;20084;-80
2022/04/28 13:09:04;;;;;;;3.60;3.30;;;;;;;;;;6186693;23;20136;-80
2022/04/28 13:11:32;;;;;;;5.18;2.97;;;;;;;;;;6187299;23;20005;-79
2022/04/28 13:13:59;;;;;;;4.35;3.72;;;;;;;;;;6187174;23;20005;-79
2022/04/28 13:16:25;;;;;;;4.45;3.50;;;;;;;;;;6186872;23;20001;-79
2022/04/28 13:18:52;;;;;;;4.43;3.92;;;;;;;;;;6185402;23;20012;-80
2022/04/28 13:21:18;;;;;;;7.85;3.38;;;;;;;;;;6187148;23;20001;-79
2022/04/28 13:23:45;;;;;;;4.22;3.83;;;;;;;;;;6185164;23;20020;-79
2022/04/28 13:26:12;;;;;;;5.82;4.07;;;;;;;;;;6186921;23;20009;-79
2022/04/28 13:28:38;;;;;;;4.88;4.47;;;;;;;;;;6186939;23;20011;-79
2022/04/28 13:31:07;;;;;;;4.05;3.65;;;;;;;;;;6186693;23;20036;-79
2022/04/28 13:33:34;;;;;;;6.03;4.32;;;;;;;;;;6186119;23;20081;-79
2022/04/28 13:36:01;;;;;;;4.50;3.88;;;;;;;;;;6186609;23;20424;-80
2022/04/28 13:38:27;;;;;;;5.15;4.28;;;;;;;;;;6186650;23;20048;-79
2022/04/28 13:40:52;;;;;;;4.55;3.95;;;;;;;;;;6186490;23;20009;-78
2022/04/28 13:43:18;;;;;;;6.07;4.25;;;;;;;;;;6186586;23;20008;-80
2022/04/28 13:45:43;;;;;;;4.15;3.78;;;;;;;;;;6186538;23;20012;-79
2022/04/28 13:48:12;;;;;;;7.70;4.47;;;;;;;;;;6186817;23;20012;-79
2022/04/28 13:50:38;;;;;;;4.47;4.07;;;;;;;;;;6186517;23;20331;-79
2022/04/28 13:53:06;;;;;;;6.72;4.35;;;;;;;;;;6187056;23;20084;-79
2022/04/28 13:55:32;;;;;;;7.78;4.07;;;;;;;;;;6186188;23;20083;-89
2022/04/28 13:57:57;;;;;;;6.78;4.10;;;;;;;;;;6187078;23;20047;-87
2022/04/28 14:00:23;;;;;;;5.50;3.92;;;;;;;;;;6186701;23;20044;-88
2022/04/28 14:02:49;;;;;;;3.45;3.15;;;;;;;;;;6187042;23;20088;-89
2022/04/28 14:05:23;;;;;;;9.57;4.55;;;;;;;;;;5071800;28;20786;-89
2022/04/28 14:07:49;;;;;;;4.18;3.50;;;;;;;;;;5071440;28;20029;-88
2022/04/28 14:10:15;;;;;;;4.53;3.80;;;;;;;;;;5071474;28;20074;-89
2022/04/28 14:12:41;;;;;;;3.55;2.60;;;;;;;;;;5070339;28;20078;-89
2022/04/28 14:15:08;;;;;;;3.33;2.97;;;;;;;;;;5070426;28;20029;-88
2022/04/28 14:17:38;;;;;;;4.47;2.72;;;;;;;;;;5071303;28;20104;-89
2022/04/28 14:20:06;;;;;;;5.22;3.05;;;;;;;;;;5071539;28;20059;-90
2022/04/28 14:22:32;;;;;;;3.03;2.45;;;;;;;;;;5071975;28;20036;-90
2022/04/28 14:24:58;;;;;;;2.80;2.50;;;;;;;;;;5072186;28;20559;-89
2022/04/28 14:27:24;;;;;;;2.22;2.13;;;;;;;;;;5072458;28;20060;-84
2022/04/28 14:29:49;;;;;;;3.22;2.45;;;;;;;;;;5072203;28;20070;-93
2022/04/28 14:32:14;;;;;;;3.05;2.50;;;;;;;;;;5072294;28;20024;-92
2022/04/28 14:34:40;;;;;;;3.80;2.25;;;;;;;;;;5072860;28;20029;-92
2022/04/28 14:37:06;;;;;;;5.47;2.40;;;;;;;;;;5071374;28;20021;-86
2022/04/28 14:39:33;;;;;;;2.92;2.58;;;;;;;;;;5070734;28;20032;-84
2022/04/28 14:42:00;;;;;;;2.63;2.10;;;;;;;;;;5071183;28;20434;-86
2022/04/28 14:44:25;;;;;;;3.40;2.38;;;;;;;;;;5070595;28;20107;-84
2022/04/28 14:46:51;;;;;;;3.90;2.40;;;;;;;;;;5070241;28;20036;-84
2022/04/28 14:52:20;;;;;;;2.65;2.30;;;;;;;;;;5070541;28;20085;-83
2022/04/28 14:54:55;;;;;;;2.22;2.00;;;;;;;;;;5070498;28;20086;-84
2022/04/28 14:57:26;;;;;;;2.88;2.50;;;;;;;;;;5070023;28;20490;-82
2022/04/28 14:59:52;;;;;;;5.70;4.45;;;;;;;;;;5072972;28;20028;-93
2022/04/28 15:02:18;;;;;;;3.88;3.45;;;;;;;;;;5070193;28;20029;-83
2022/04/28 15:04:45;;;;;;;3.15;2.38;;;;;;;;;;5069678;28;20075;-85
2022/04/28 15:07:12;;;;;;;3.13;2.30;;;;;;;;;;5069813;28;20105;-84
2022/04/28 15:09:37;;;;;;;2.72;2.53;;;;;;;;;;5069747;28;20032;-85
2022/04/28 15:12:03;;;;;;;2.90;2.60;;;;;;;;;;5069504;28;20111;-83
2022/04/28 15:14:29;;;;;;;3.20;2.40;;;;;;;;;;5069322;28;20029;-84
2022/04/28 15:16:54;;;;;;;3.00;2.42;;;;;;;;;;5055950;28;20021;-84
2022/04/28 15:19:20;;;;;;;4.13;2.78;;;;;;;;;;5056750;28;20475;-83
2022/04/28 15:21:45;;;;;;;2.42;2.03;;;;;;;;;;5056672;28;20032;-85
2022/04/28 15:24:11;;;;;;;2.42;2.22;;;;;;;;;;5056876;28;20044;-85
2022/04/28 15:26:36;;;;;;;6.90;3.53;;;;;;;;;;5056839;28;20483;-85
2022/04/28 15:29:03;;;;;;;3.42;2.85;;;;;;;;;;5058582;28;20109;-80
2022/04/28 15:31:36;;;;;;;2.80;2.60;;;;;;;;;;5059189;28;20076;-88
2022/04/28 15:34:02;;;;;;;5.32;2.40;;;;;;;;;;5058291;28;20056;-85
2022/04/28 15:36:28;;;;;;;4.22;2.70;;;;;;;;;;5061488;28;20383;-86
2022/04/28 15:38:53;;;;;;;4.22;3.05;;;;;;;;;;5058897;28;20033;-82
2022/04/28 15:41:19;;;;;;;8.57;3.05;;;;;;;;;;5056020;28;20032;-84
2022/04/28 15:43:45;;;;;;;3.72;2.83;;;;;;;;;;5055680;28;20382;-83
2022/04/28 15:46:10;;;;;;;3.95;2.92;;;;;;;;;;5055738;28;20104;-82
2022/04/28 15:48:36;;;;;;;2.85;2.65;;;;;;;;;;5055530;28;20379;-81
2022/04/28 15:51:02;;;;;;;3.17;2.45;;;;;;;;;;5055891;28;20021;-82
2022/04/28 15:53:27;;;;;;;4.38;3.00;;;;;;;;;;5055563;28;20029;-81
2022/04/28 15:55:53;;;;;;;3.80;2.85;;;;;;;;;;5054038;28;20605;-82
2022/04/28 15:58:18;;;;;;;4.45;2.67;;;;;;;;;;5055368;28;20028;-81
2022/04/28 16:00:44;;;;;;;3.83;2.67;;;;;;;;;;5055357;28;20017;-81
2022/04/28 16:03:09;;;;;;;4.15;2.90;;;;;;;;;;5053800;28;20017;-81
2022/04/28 16:05:35;;;;;;;3.42;2.60;;;;;;;;;;5055073;28;20021;-82
2022/04/28 16:08:01;;;;;;;3.65;3.15;;;;;;;;;;5054212;28;20111;-81
2022/04/28 16:10:27;;;;;;;5.05;3.08;;;;;;;;;;5055381;28;20027;-81
2022/04/28 16:12:52;;;;;;;3.30;3.00;;;;;;;;;;5055144;28;20021;-81
2022/04/28 16:15:18;;;;;;;3.15;2.75;;;;;;;;;;5055028;28;20541;-81
2022/04/28 16:17:43;;;;;;;3.20;2.97;;;;;;;;;;5055190;28;20032;-81
2022/04/28 16:20:09;;;;;;;3.28;2.85;;;;;;;;;;5055241;28;20100;-81
2022/04/28 16:22:34;;;;;;;4.07;3.17;;;;;;;;;;5055060;28;20353;-81
2022/04/28 16:25:00;;;;;;;3.72;3.42;;;;;;;;;;5054534;28;20033;-82
2022/04/28 16:27:29;;;;;;;3.30;3.00;;;;;;;;;;5054091;28;20115;-81
2022/04/28 16:29:55;;;;;;;3.20;2.77;;;;;;;;;;5055009;28;20571;-81
2022/04/28 16:32:20;;;;;;;3.95;2.65;;;;;;;;;;5054856;28;20052;-81
2022/04/28 16:34:46;;;;;;;3.40;2.80;;;;;;;;;;5054699;28;20407;-80
2022/04/28 16:37:12;;;;;;;4.22;3.00;;;;;;;;;;5054682;28;20053;-81
2022/04/28 16:39:38;;;;;;;3.47;2.70;;;;;;;;;;5054541;28;20539;-82
2022/04/28 16:42:04;;;;;;;3.47;3.05;;;;;;;;;;5054521;28;20020;-81
2022/04/28 17:16:24;;;;;;;3.33;3.03;;;;;;;;;;4917970;29;20083;-89
2022/04/28 17:18:49;;;;;;;3.80;3.40;;;;;;;;;;4919759;29;20052;-89
2022/04/28 17:21:16;;;;;;;3.42;2.95;;;;;;;;;;4925352;29;20020;-85
2022/04/28 17:23:42;;;;;;;3.55;2.97;;;;;;;;;;4918735;29;20032;-92
2022/04/28 17:26:08;;;;;;;3.88;2.65;;;;;;;;;;4919294;29;20103;-93
2022/04/28 17:28:35;;;;;;;2.85;2.65;;;;;;;;;;4919718;29;20024;-95
2022/04/28 17:31:00;;;;;;;3.97;3.50;;;;;;;;;;4922483;29;20024;-91
2022/04/28 17:33:26;;;;;;;3.40;3.10;;;;;;;;;;4924354;29;20043;-91
2022/04/28 17:35:52;;;;;;;3.13;2.83;;;;;;;;;;4934280;29;20075;-95
2022/04/28 17:38:20;;;;;;;2.85;2.65;;;;;;;;;;4938336;29;20107;-85
2022/04/28 17:40:46;;;;;;;3.13;2.80;;;;;;;;;;4937849;29;20023;-93
2022/04/28 17:43:12;;;;;;;3.13;2.90;;;;;;;;;;4937970;29;20024;-94
2022/04/28 17:45:37;;;;;;;4.70;3.70;;;;;;;;;;4938008;29;20028;-85
2022/04/28 17:48:03;;;;;;;3.17;2.88;;;;;;;;;;4938055;29;20340;-92
2022/04/28 17:50:28;;;;;;;3.40;3.10;;;;;;;;;;4937563;29;20075;-90
2022/04/28 17:52:54;;;;;;;3.47;3.17;;;;;;;;;;4937394;29;20035;-91
2022/04/28 18:00:48;;;;;;;3.83;3.08;;;;;;;;;;4937959;29;20039;-83
2022/04/28 18:03:14;;;;;;;4.25;3.20;;;;;;;;;;4937330;29;20024;-84
2022/04/28 18:05:41;;;;;;;3.70;3.13;;;;;;;;;;4936751;29;20031;-86
2022/04/28 18:08:06;;;;;;;3.40;3.10;;;;;;;;;;4937610;29;20039;-87
2022/04/28 18:10:32;;;;;;;3.72;3.05;;;;;;;;;;4937169;29;20036;-83
2022/04/28 18:12:57;;;;;;;4.03;2.92;;;;;;;;;;4936679;29;20020;-86
2022/04/28 18:15:24;;;;;;;4.25;3.53;;;;;;;;;;4922447;29;20067;-84
2022/04/28 18:17:50;;;;;;;4.13;3.08;;;;;;;;;;4921032;29;20039;-88
2022/04/28 18:20:16;;;;;;;3.72;3.42;;;;;;;;;;4923999;29;20016;-90
2022/04/28 18:22:42;;;;;;;3.67;3.03;;;;;;;;;;4919962;29;20043;-90
2022/04/28 18:25:08;;;;;;;5.90;3.55;;;;;;;;;;4934934;29;20024;-88
2022/04/28 18:27:34;;;;;;;4.05;2.90;;;;;;;;;;4937936;29;20028;-88
2022/04/28 18:30:02;;;;;;;5.35;3.47;;;;;;;;;;4936792;29;20028;-90
2022/04/28 18:32:28;;;;;;;3.65;3.30;;;;;;;;;;4937388;29;20036;-92
2022/04/28 18:34:54;;;;;;;3.72;3.03;;;;;;;;;;4937125;29;20028;-92
2022/04/28 18:45:52;;;;;;;4.18;3.10;;;;;;;;;;4932425;29;20046;-84
2022/04/28 18:48:19;;;;;;;5.13;3.22;;;;;;;;;;4936248;29;20386;-87
2022/04/28 18:50:44;;;;;;;3.78;3.20;;;;;;;;;;4944602;29;20032;-88
2022/04/28 18:53:09;;;;;;;3.33;3.03;;;;;;;;;;4940408;29;20042;-91
2022/04/28 18:55:37;;;;;;;3.60;3.10;;;;;;;;;;4940039;29;20403;-85
2022/04/28 18:58:03;;;;;;;3.92;3.30;;;;;;;;;;4940791;29;20455;-87
2022/04/28 19:00:29;;;;;;;4.97;3.30;;;;;;;;;;4940416;29;20110;-87
2022/04/28 19:02:57;;;;;;;4.00;3.60;;;;;;;;;;4940236;29;20034;-84
2022/04/28 19:05:23;;;;;;;5.05;3.13;;;;;;;;;;4939881;29;20146;-87
2022/04/28 19:07:48;;;;;;;4.35;3.28;;;;;;;;;;4940490;29;20054;-89
2022/04/28 19:10:14;;;;;;;6.10;3.85;;;;;;;;;;4940641;29;20039;-91
2022/04/28 19:12:42;;;;;;;5.70;3.58;;;;;;;;;;4940125;29;20031;-90
2022/04/28 19:15:11;;;;;;;3.38;3.00;;;;;;;;;;4940337;29;20032;-90
2022/04/28 19:17:36;;;;;;;3.10;2.80;;;;;;;;;;4931071;29;20047;-88
2022/04/28 19:20:04;;;;;;;5.10;3.40;;;;;;;;;;4920084;29;20275;-92
2022/04/28 19:22:30;;;;;;;3.80;3.40;;;;;;;;;;4921706;29;20123;-93
2022/04/28 19:24:57;;;;;;;6.20;4.07;;;;;;;;;;4921923;29;20538;-94
2022/04/28 19:27:23;;;;;;;5.35;4.28;;;;;;;;;;4921077;29;20043;-93
2022/04/28 19:29:49;;;;;;;5.40;3.72;;;;;;;;;;4921420;29;20025;-92
2022/04/28 19:32:15;;;;;;;5.90;4.38;;;;;;;;;;4921290;29;20113;-94
2022/04/28 19:34:41;;;;;;;6.38;4.60;;;;;;;;;;4922786;29;20035;-92
2022/04/28 19:37:08;;;;;;;5.43;4.50;;;;;;;;;;4923204;29;20028;-84
2022/04/28 19:39:37;;;;;;;7.07;4.40;;;;;;;;;;4921748;29;20368;-82
2022/04/28 19:42:03;;;;;;;9.25;5.88;;;;;;;;;;4922555;29;20027;-86
2022/04/28 19:44:29;;;;;;;8.10;4.50;;;;;;;;;;4921178;29;20040;-89
2022/04/28 19:46:55;;;;;;;4.82;4.10;;;;;;;;;;4919837;29;20059;-89
2022/04/28 19:49:23;;;;;;;6.13;3.70;;;;;;;;;;4920879;29;20060;-84
2022/04/28 19:51:52;;;;;;;4.15;3.40;;;;;;;;;;4920875;29;20033;-86
2022/04/28 19:54:18;;;;;;;4.07;3.65;;;;;;;;;;4920642;29;20056;-93
2022/04/28 19:56:44;;;;;;;4.95;3.45;;;;;;;;;;4922552;29;20028;-94
2022/04/28 19:59:10;;;;;;;4.43;3.67;;;;;;;;;;4921097;29;20052;-91
2022/04/28 20:01:35;;;;;;;5.45;3.60;;;;;;;;;;4920692;29;20024;-93
2022/04/28 20:04:01;;;;;;;3.33;3.03;;;;;;;;;;4921708;29;20059;-88
2022/04/28 20:06:27;;;;;;;4.10;3.70;;;;;;;;;;4920207;29;20534;-86
2022/04/28 20:08:58;;;;;;;6.03;4.13;;;;;;;;;;4920023;29;20024;-90
2022/04/28 20:11:27;;;;;;;4.30;3.88;;;;;;;;;;4919791;29;20384;-88
2022/04/28 20:13:58;;;;;;;5.43;4.78;;;;;;;;;;4920918;29;20486;-85
2022/04/28 20:16:28;;;;;;;6.13;4.57;;;;;;;;;;4920022;29;20487;-90
2022/04/28 20:18:55;;;;;;;5.70;3.78;;;;;;;;;;4920770;29;20530;-89
2022/04/28 20:21:21;;;;;;;4.30;3.55;;;;;;;;;;4920201;29;20076;-89
2022/04/28 20:23:47;;;;;;;6.25;4.93;;;;;;;;;;4920822;29;20148;-92
2022/04/28 20:26:16;;;;;;;6.53;3.85;;;;;;;;;;4933557;29;20071;-92
2022/04/28 20:28:44;;;;;;;5.80;4.38;;;;;;;;;;4919571;29;20035;-91
2022/04/28 20:31:10;;;;;;;5.20;3.85;;;;;;;;;;4920212;29;20115;-87
2022/04/28 20:33:36;;;;;;;6.45;4.85;;;;;;;;;;4930204;29;20031;-89
2022/04/28 20:36:02;;;;;;;6.15;4.10;;;;;;;;;;4931319;29;20035;-87
2022/04/28 20:38:28;;;;;;;5.80;4.85;;;;;;;;;;4920117;29;20432;-88
2022/04/28 20:40:55;;;;;;;7.25;5.07;;;;;;;;;;4919706;29;20028;-87
2022/04/28 20:43:22;;;;;;;5.32;4.68;;;;;;;;;;4938546;29;20063;-84
2022/04/28 20:45:48;;;;;;;6.38;4.85;;;;;;;;;;4940641;29;20043;-85
2022/04/28 20:48:13;;;;;;;5.75;4.63;;;;;;;;;;4937965;29;20032;-88
2022/04/28 20:50:39;;;;;;;5.30;4.75;;;;;;;;;;4925537;29;20510;-85
2022/04/28 20:53:08;;;;;;;5.63;4.78;;;;;;;;;;4919342;29;20028;-89
2022/04/28 20:55:35;;;;;;;3.88;3.47;;;;;;;;;;4918989;29;20028;-84
2022/04/28 20:58:02;;;;;;;4.72;4.05;;;;;;;;;;4918698;29;20032;-89
2022/04/28 21:00:28;;;;;;;6.07;3.70;;;;;;;;;;4918699;29;20028;-91
2022/04/28 21:02:53;;;;;;;5.65;3.72;;;;;;;;;;4918951;29;20155;-89
2022/04/28 21:05:21;;;;;;;4.65;3.22;;;;;;;;;;4922967;29;20056;-83
2022/04/28 21:07:51;;;;;;;5.60;3.65;;;;;;;;;;4918191;29;20031;-92
2022/04/28 21:10:19;;;;;;;3.67;3.33;;;;;;;;;;4918943;29;20044;-90
2022/04/28 21:12:46;;;;;;;5.70;3.65;;;;;;;;;;4922313;29;20091;-88
2022/04/28 21:15:12;;;;;;;3.85;3.42;;;;;;;;;;4919436;29;20028;-87
2022/04/28 21:17:42;;;;;;;4.05;3.30;;;;;;;;;;4919034;29;20125;-91
2022/04/28 21:20:10;;;;;;;4.07;3.67;;;;;;;;;;4919217;29;20044;-90
2022/04/28 21:22:37;;;;;;;4.85;3.33;;;;;;;;;;4919143;29;20039;-86
2022/04/28 21:25:04;;;;;;;3.20;2.90;;;;;;;;;;4924762;29;20527;-90
2022/04/28 21:27:30;;;;;;;4.22;3.20;;;;;;;;;;4918846;29;20383;-87
2022/04/28 21:29:55;;;;;;;3.80;3.50;;;;;;;;;;4920104;29;20039;-86
2022/04/28 21:32:22;;;;;;;4.78;3.42;;;;;;;;;;4922471;29;20099;-85
2022/04/28 21:34:47;;;;;;;4.03;3.63;;;;;;;;;;4918404;29;20543;-89
